Time;durP1;ratioP1;P1;durP2;ratioP2;P2;SDS_P1;SDS_P2;PMS_P1;PMS_P2;Temp;Humidity;BMP_temperature;BMP_pressure;BME280_temperature;BME280_humidity;BME280_pressure;Samples;Min_cycle;Max_cycle;Signal;HPM_P1;HPM_P2
2023/01/08 00:00:05;;;;;;;;;;;;;;;3.70;88.14;100246.75;310185;31;4263;-75
2023/01/08 00:00:15;;;;;;;;;;;;;;;3.70;88.10;100246.75;308536;31;4525;-74
2023/01/08 00:00:25;;;;;;;;;;;;;;;3.70;88.09;100251.06;311085;31;1992;-74
2023/01/08 00:00:35;;;;;;;;;;;;;;;3.68;88.16;100249.31;309740;31;4630;-74
2023/01/08 00:00:46;;;;;;;;;;;;;;;3.68;88.14;100248.47;307339;31;5128;-74
2023/01/08 00:00:56;;;;;;;;;;;;;;;3.68;88.30;100246.75;309519;31;2068;-74
2023/01/08 00:01:07;;;;;;;;;;;;;;;3.68;88.37;100244.16;309269;31;2803;-74
2023/01/08 00:01:17;;;;;;;;;;;;;;;3.68;88.01;100244.16;309497;31;4015;-74
2023/01/08 00:01:27;;;;;;;;;;;;;;;3.68;88.54;100248.47;313282;31;1376;-74
2023/01/08 00:01:38;;;;;;;;;;;;;;;3.68;88.22;100249.31;312826;31;5021;-74
2023/01/08 00:01:48;;;;;;;;;;;;;;;3.68;88.00;100244.16;310386;31;5832;-74
2023/01/08 00:01:58;;;;;;;;;;;;;;;3.68;87.98;100249.31;307351;32;2024;-74
2023/01/08 00:02:09;;;;;;;;;;;;;;;3.67;88.05;100250.19;306294;32;5739;-74
2023/01/08 00:02:19;;;;;;;;;;;;;;;3.66;88.09;100248.47;304885;32;6300;-74
2023/01/08 00:02:29;;;;;;;;;;;;;;;3.66;88.31;100243.28;304958;32;1483;-74
2023/01/08 00:02:40;;;;;;;;;;;;;;;3.67;88.11;100247.59;304318;32;837;-74
2023/01/08 00:02:50;;;;;;;;;;;;;;;3.66;88.07;100245.88;302219;32;6477;-74
2023/01/08 00:03:00;;;;;;;;;;;;;;;3.67;88.23;100246.75;298485;32;5052;-74
2023/01/08 00:03:11;;;;;;;;;;;;;;;3.67;88.14;100246.75;298158;33;920;-74
2023/01/08 00:03:21;;;;;;;;;;;;;;;3.68;88.20;100251.06;298977;32;5113;-74
2023/01/08 00:03:31;;;;;;;;;;;;;;;3.67;87.82;100247.59;298413;32;5132;-74
2023/01/08 00:03:41;;;;;;;;;;;;;;;3.67;88.26;100247.59;297004;33;1445;-74
2023/01/08 00:03:52;;;;;;;;;;;;;;;3.66;88.23;100251.06;295414;33;6240;-74
2023/01/08 00:04:02;;;;;;;;;;;;;;;3.67;88.15;100252.78;292984;33;7691;-74
2023/01/08 00:04:12;;;;;;;;;;;;;;;3.67;88.12;100251.91;295408;33;2077;-74
2023/01/08 00:04:22;;;;;;;;;;;;;;;3.67;88.23;100251.91;293394;33;8285;-74
2023/01/08 00:04:33;;;;;;;;;;;;;;;3.65;87.97;100246.75;292147;33;8253;-74
2023/01/08 00:04:43;;;;;;;;;;;;;;;3.68;88.13;100251.06;293900;33;2034;-74
2023/01/08 00:04:53;;;;;;;;;;;;;;;3.68;88.16;100248.47;289744;33;8088;-73
2023/01/08 00:05:04;;;;;;;;;;;;;;;3.68;88.33;100249.31;289986;33;9111;-74
2023/01/08 00:05:14;;;;;;;;;;;;;;;3.69;87.80;100245.00;291089;34;2099;-73
2023/01/08 00:07:25;;;;;;;;;;;;;;;3.71;87.95;100248.47;2493877;27;20251;-75
2023/01/08 00:07:35;;;;;;;;;;;;;;;3.72;87.72;100245.00;353926;27;3190;-75
2023/01/08 00:07:45;;;;;;;;;;;;;;;3.73;87.70;100248.47;351484;28;6313;-75
2023/01/08 00:07:55;;;;;;;;;;;;;;;3.73;87.60;100245.88;350545;28;1313;-75
2023/01/08 00:08:07;;;;;;;;;;;;;;;3.72;87.53;100242.41;348229;28;4169;-76
2023/01/08 00:08:17;;;;;;;;;;;;;;;3.71;87.77;100245.88;350652;28;6039;-76
2023/01/08 00:08:28;;;;;;;;;;;;;;;3.72;87.47;100249.31;351950;28;870;-76
2023/01/08 00:08:38;;;;;;;;;;;;;;;3.71;87.34;100247.59;351681;28;1869;-76
2023/01/08 00:08:48;;;;;;;;;;;;;;;3.70;87.24;100241.56;351575;28;5999;-76
2023/01/08 00:08:59;;;;;;;;;;;;;;;3.70;87.22;100243.28;349055;28;3486;-76
2023/01/08 00:09:09;;;;;;;;;;;;;;;3.68;87.26;100244.16;346363;28;4782;-75
2023/01/08 00:09:19;;;;;;;;;;;;;;;3.68;87.39;100244.16;348922;28;3534;-75
2023/01/08 00:09:30;;;;;;;;;;;;;;;3.67;87.51;100239.84;349136;28;1923;-75
2023/01/08 00:09:40;;;;;;;;;;;;;;;3.66;87.27;100248.47;349183;28;819;-75
2023/01/08 00:09:51;;;;;;;;;;;;;;;3.67;87.69;100242.44;348440;28;1978;-75
2023/01/08 00:10:01;;;;;;;;;;;;;;;3.66;87.55;100245.88;348319;28;3999;-75
2023/01/08 00:10:11;;;;;;;;;;;;;;;3.66;87.67;100245.03;346211;28;3246;-75
2023/01/08 00:10:21;;;;;;;;;;;;;;;3.66;87.62;100243.28;347290;28;3260;-75
2023/01/08 00:10:31;;;;;;;;;;;;;;;3.66;87.51;100240.72;346161;28;2590;-75
2023/01/08 00:10:42;;;;;;;;;;;;;;;3.65;87.72;100243.28;345580;28;3452;-75
2023/01/08 00:10:52;;;;;;;;;;;;;;;3.65;87.71;100251.91;347152;28;1966;-75
2023/01/08 00:11:03;;;;;;;;;;;;;;;3.65;87.82;100244.16;345680;28;4957;-72
2023/01/08 00:11:13;;;;;;;;;;;;;;;3.64;87.73;100239.84;348532;28;3395;-75
2023/01/08 00:11:24;;;;;;;;;;;;;;;3.64;87.84;100242.44;346397;28;1362;-75
2023/01/08 00:11:34;;;;;;;;;;;;;;;3.65;88.00;100241.56;348502;28;1807;-75
2023/01/08 00:11:44;;;;;;;;;;;;;;;3.65;87.76;100241.56;347212;28;6005;-75
2023/01/08 00:11:55;;;;;;;;;;;;;;;3.65;87.76;100243.28;346364;28;3573;-74
2023/01/08 00:12:05;;;;;;;;;;;;;;;3.64;87.55;100245.03;344087;28;5294;-74
2023/01/08 00:12:15;;;;;;;;;;;;;;;3.61;87.67;100242.44;343905;28;5750;-74
2023/01/08 00:12:25;;;;;;;;;;;;;;;3.62;87.73;100241.56;345047;28;1858;-75
2023/01/08 00:12:36;;;;;;;;;;;;;;;3.61;87.76;100239.84;344701;28;3329;-75
2023/01/08 00:12:46;;;;;;;;;;;;;;;3.60;87.75;100245.91;344971;28;2112;-75
2023/01/08 00:12:56;;;;;;;;;;;;;;;3.61;87.80;100242.44;343680;28;1338;-75
2023/01/08 00:13:06;;;;;;;;;;;;;;;3.61;87.86;100247.63;344919;28;2104;-74
2023/01/08 00:13:17;;;;;;;;;;;;;;;3.61;87.78;100241.59;341042;28;2072;-74
2023/01/08 00:13:27;;;;;;;;;;;;;;;3.59;87.89;100241.59;339593;29;1327;-73
2023/01/08 00:13:37;;;;;;;;;;;;;;;3.61;87.63;100245.03;341708;28;2006;-73
2023/01/08 00:13:47;;;;;;;;;;;;;;;3.60;87.73;100245.91;344743;28;2055;-75
2023/01/08 00:13:57;;;;;;;;;;;;;;;3.59;87.44;100244.16;346191;28;1320;-75
2023/01/08 00:14:08;;;;;;;;;;;;;;;3.60;87.82;100245.03;341999;28;1536;-74
2023/01/08 00:14:18;;;;;;;;;;;;;;;3.58;87.69;100247.63;341286;28;1940;-74
2023/01/08 00:14:29;;;;;;;;;;;;;;;3.60;87.60;100245.91;340909;29;711;-74
2023/01/08 00:14:39;;;;;;;;;;;;;;;3.58;87.88;100242.44;339629;29;1963;-74
2023/01/08 00:14:49;;;;;;;;;;;;;;;3.59;87.77;100244.16;342876;28;2152;-74
2023/01/08 00:14:59;;;;;;;;;;;;;;;3.60;87.32;100240.72;344519;28;2073;-74
2023/01/08 00:15:10;;;;;;;;;;;;;;;3.60;87.49;100245.91;343502;28;821;-74
2023/01/08 00:15:20;;;;;;;;;;;;;;;3.61;87.75;100239.84;340546;28;2138;-74
2023/01/08 00:15:30;;;;;;;;;;;;;;;3.62;87.70;100245.88;338111;28;2011;-73
2023/01/08 00:15:40;;;;;;;;;;;;;;;3.61;87.39;100241.59;338130;29;1395;-74
2023/01/08 00:15:51;;;;;;;;;;;;;;;3.62;87.16;100243.31;338882;29;1414;-74
2023/01/08 00:16:01;;;;;;;;;;;;;;;3.62;87.47;100249.34;341190;28;2022;-74
2023/01/08 00:16:13;;;;;;;;;;;;;;;3.61;87.48;100239.84;342125;28;557;-74
2023/01/08 00:16:23;;;;;;;;;;;;;;;3.60;87.81;100239.84;340670;28;2346;-76
2023/01/08 00:16:33;;;;;;;;;;;;;;;3.59;87.70;100244.16;339410;29;1509;-75
2023/01/08 00:16:43;;;;;;;;;;;;;;;3.61;87.87;100239.84;342155;28;885;-75
2023/01/08 00:16:53;;;;;;;;;;;;;;;3.61;87.24;100247.63;335537;29;1765;-74
2023/01/08 00:17:04;;;;;;;;;;;;;;;3.60;87.63;100237.28;335423;29;1569;-74
2023/01/08 00:17:14;;;;;;;;;;;;;;;3.59;87.62;100249.34;334109;29;2162;-74
2023/01/08 00:17:24;;;;;;;;;;;;;;;3.60;87.67;100245.91;334377;29;1301;-74
2023/01/08 00:17:34;;;;;;;;;;;;;;;3.61;87.87;100247.63;335691;29;2050;-74
2023/01/08 00:17:45;;;;;;;;;;;;;;;3.61;87.20;100242.44;333942;29;2054;-75
2023/01/08 00:17:55;;;;;;;;;;;;;;;3.61;87.82;100245.03;330657;29;847;-75
2023/01/08 00:18:06;;;;;;;;;;;;;;;3.61;87.44;100246.75;332660;29;1622;-74
2023/01/08 00:18:16;;;;;;;;;;;;;;;3.61;87.47;100242.44;332385;29;1954;-74
2023/01/08 00:18:26;;;;;;;;;;;;;;;3.61;87.56;100242.44;337042;29;1276;-74
2023/01/08 00:18:36;;;;;;;;;;;;;;;3.61;87.88;100247.63;337371;29;1741;-74
2023/01/08 00:18:46;;;;;;;;;;;;;;;3.62;87.09;100244.16;334840;29;2073;-74
2023/01/08 00:18:57;;;;;;;;;;;;;;;3.61;87.34;100242.44;334543;29;1412;-74
2023/01/08 00:19:07;;;;;;;;;;;;;;;3.60;87.66;100238.13;333129;29;1490;-75
2023/01/08 00:19:17;;;;;;;;;;;;;;;3.61;87.35;100241.59;332411;29;2053;-73
2023/01/08 00:19:28;;;;;;;;;;;;;;;3.61;87.61;100246.75;333084;29;787;-73
2023/01/08 00:19:40;;;;;;;;;;;;;;;3.61;87.40;100245.03;330283;29;2523;-73
2023/01/08 00:19:51;;;;;;;;;;;;;;;3.59;87.67;100239.00;331069;29;2250;-74
2023/01/08 00:20:01;;;;;;;;;;;;;;;3.59;87.67;100238.13;331429;29;1977;-73
2023/01/08 00:20:11;;;;;;;;;;;;;;;3.58;87.54;100242.44;328238;30;1301;-73
2023/01/08 00:20:21;;;;;;;;;;;;;;;3.59;87.59;100244.16;324141;30;5643;-74
2023/01/08 00:20:32;;;;;;;;;;;;;;;3.59;87.50;100243.31;323893;30;5877;-74
2023/01/08 00:20:45;;;;;;;;;;;;;;;3.58;87.71;100242.44;324694;30;812;-74
2023/01/08 00:20:55;;;;;;;;;;;;;;;3.59;87.62;100245.91;325891;30;5820;-73
2023/01/08 00:21:05;;;;;;;;;;;;;;;3.59;87.80;100243.31;325422;30;2051;-73
2023/01/08 00:21:16;;;;;;;;;;;;;;;3.58;87.55;100246.75;324859;30;2047;-73
2023/01/08 00:21:26;;;;;;;;;;;;;;;3.57;87.63;100240.72;324836;30;2351;-73
2023/01/08 00:21:37;;;;;;;;;;;;;;;3.58;88.01;100242.44;322350;30;2763;-75
2023/01/08 00:21:47;;;;;;;;;;;;;;;3.57;87.72;100240.72;321385;30;3558;-74
2023/01/08 00:21:57;;;;;;;;;;;;;;;3.58;87.74;100246.75;321190;30;1127;-74
2023/01/08 00:22:08;;;;;;;;;;;;;;;3.57;88.02;100243.31;314787;30;2929;-74
2023/01/08 00:22:18;;;;;;;;;;;;;;;3.57;87.91;100245.03;316581;30;5485;-74
2023/01/08 00:22:28;;;;;;;;;;;;;;;3.56;87.79;100240.72;319467;30;1936;-74
2023/01/08 00:22:38;;;;;;;;;;;;;;;3.54;87.97;100240.72;314028;31;2663;-74
2023/01/08 00:22:49;;;;;;;;;;;;;;;3.55;88.01;100246.78;314855;31;2866;-74
2023/01/08 00:22:59;;;;;;;;;;;;;;;3.55;88.33;100244.19;314940;31;2373;-75
2023/01/08 00:23:12;;;;;;;;;;;;;;;3.55;87.95;100246.78;315176;31;2217;-74
2023/01/08 00:23:22;;;;;;;;;;;;;;;3.54;87.98;100243.31;314892;31;2486;-76
2023/01/08 00:23:33;;;;;;;;;;;;;;;3.53;88.07;100249.34;313300;31;3222;-75
2023/01/08 00:23:43;;;;;;;;;;;;;;;3.53;87.99;100243.31;310961;31;3899;-75
2023/01/08 00:23:53;;;;;;;;;;;;;;;3.52;88.06;100250.22;311084;31;5657;-75
2023/01/08 00:24:04;;;;;;;;;;;;;;;3.53;87.88;100248.50;310493;31;4784;-75
2023/01/08 00:24:14;;;;;;;;;;;;;;;3.52;87.62;100247.63;305473;31;4024;-75
2023/01/08 00:24:24;;;;;;;;;;;;;;;3.51;88.20;100245.91;304303;32;3370;-75
2023/01/08 00:24:34;;;;;;;;;;;;;;;3.51;87.89;100251.09;302804;32;4262;-75
2023/01/08 00:24:44;;;;;;;;;;;;;;;3.51;87.76;100247.63;300168;32;3837;-75
2023/01/08 00:24:55;;;;;;;;;;;;;;;3.50;88.06;100246.78;301876;32;5460;-74
2023/01/08 00:25:05;;;;;;;;;;;;;;;3.48;88.03;100240.75;304297;32;4185;-74
2023/01/08 00:25:16;;;;;;;;;;;;;;;3.50;88.15;100244.19;305180;32;3336;-74
2023/01/08 00:25:26;;;;;;;;;;;;;;;3.51;88.10;100251.09;305467;32;3419;-74
2023/01/08 00:25:36;;;;;;;;;;;;;;;3.51;88.17;100245.91;305136;31;4062;-75
2023/01/08 00:25:46;;;;;;;;;;;;;;;3.52;88.18;100242.47;302671;32;4575;-75
2023/01/08 00:25:59;;;;;;;;;;;;;;;3.53;88.14;100244.19;304477;32;5768;-75
2023/01/08 00:26:09;;;;;;;;;;;;;;;3.52;87.96;100242.47;306197;32;2055;-74
2023/01/08 00:26:19;;;;;;;;;;;;;;;3.53;88.18;100249.34;304496;32;6400;-74
2023/01/08 00:26:30;;;;;;;;;;;;;;;3.52;88.24;100239.88;303664;32;6108;-74
2023/01/08 00:26:40;;;;;;;;;;;;;;;3.52;88.00;100242.47;301328;32;921;-74
2023/01/08 00:26:50;;;;;;;;;;;;;;;3.53;88.05;100244.19;294154;32;5837;-74
2023/01/08 00:27:00;;;;;;;;;;;;;;;3.53;87.92;100243.31;292474;33;5151;-74
2023/01/08 00:27:11;;;;;;;;;;;;;;;3.52;87.75;100242.47;293155;33;3890;-74
2023/01/08 00:27:21;;;;;;;;;;;;;;;3.53;88.00;100246.78;289112;33;6179;-74
2023/01/08 00:27:31;;;;;;;;;;;;;;;3.53;88.26;100244.19;289426;33;4916;-74
2023/01/08 00:27:41;;;;;;;;;;;;;;;3.53;88.00;100238.16;289380;34;1318;-74
2023/01/08 00:27:51;;;;;;;;;;;;;;;3.52;87.90;100245.06;289663;33;5426;-74
2023/01/08 00:28:02;;;;;;;;;;;;;;;3.53;88.03;100243.31;290209;33;6984;-75
2023/01/08 00:28:13;;;;;;;;;;;;;;;3.53;87.69;100240.72;288263;34;2233;-75
2023/01/08 00:28:24;;;;;;;;;;;;;;;3.52;87.90;100237.28;283613;34;8569;-74
2023/01/08 00:28:34;;;;;;;;;;;;;;;3.52;88.17;100242.47;281249;34;9653;-74
2023/01/08 00:28:46;;;;;;;;;;;;;;;3.51;87.55;100240.72;278293;34;8147;-74
2023/01/08 00:30:21;;;;;;;;;;;;;;;3.52;88.00;100241.59;2489165;27;20262;-75
2023/01/08 00:30:32;;;;;;;;;;;;;;;3.51;87.92;100243.31;353042;28;1933;-75
2023/01/08 00:30:42;;;;;;;;;;;;;;;3.50;87.92;100244.19;351705;28;3916;-76
2023/01/08 00:30:52;;;;;;;;;;;;;;;3.50;87.78;100238.16;347790;28;5739;-76
2023/01/08 00:31:03;;;;;;;;;;;;;;;3.49;87.66;100241.59;349742;28;2669;-75
2023/01/08 00:31:13;;;;;;;;;;;;;;;3.49;88.09;100241.59;348877;28;1664;-75
2023/01/08 00:31:23;;;;;;;;;;;;;;;3.48;87.59;100235.56;347574;28;3182;-75
2023/01/08 00:31:33;;;;;;;;;;;;;;;3.49;87.46;100239.03;349031;28;1857;-75
2023/01/08 00:31:44;;;;;;;;;;;;;;;3.48;88.08;100243.31;348202;28;1316;-74
2023/01/08 00:31:54;;;;;;;;;;;;;;;3.47;87.72;100244.19;343647;28;5355;-75
2023/01/08 00:32:04;;;;;;;;;;;;;;;3.47;87.79;100244.19;346958;28;1804;-74
2023/01/08 00:32:14;;;;;;;;;;;;;;;3.48;87.86;100240.75;349062;28;1389;-74
2023/01/08 00:32:25;;;;;;;;;;;;;;;3.47;88.33;100239.03;347408;28;3012;-74
2023/01/08 00:32:35;;;;;;;;;;;;;;;3.48;87.91;100234.72;347605;28;2086;-74
2023/01/08 00:32:45;;;;;;;;;;;;;;;3.48;87.83;100237.28;347427;28;3850;-75
2023/01/08 00:32:55;;;;;;;;;;;;;;;3.48;87.72;100240.75;344909;28;5734;-74
2023/01/08 00:33:06;;;;;;;;;;;;;;;3.49;87.81;100242.47;346892;28;3839;-75
2023/01/08 00:33:16;;;;;;;;;;;;;;;3.49;87.94;100242.47;348434;28;1653;-74
2023/01/08 00:33:26;;;;;;;;;;;;;;;3.50;87.71;100248.50;347734;28;3326;-74
2023/01/08 00:33:37;;;;;;;;;;;;;;;3.49;87.76;100237.28;346977;28;1905;-74
2023/01/08 00:33:47;;;;;;;;;;;;;;;3.50;88.01;100239.00;349887;28;3925;-74
2023/01/08 00:33:57;;;;;;;;;;;;;;;3.49;87.75;100242.47;348091;28;5866;-74
2023/01/08 00:34:07;;;;;;;;;;;;;;;3.50;87.84;100241.59;349930;28;3540;-74
2023/01/08 00:34:18;;;;;;;;;;;;;;;3.50;87.63;100244.19;348905;28;1984;-74
2023/01/08 00:34:28;;;;;;;;;;;;;;;3.51;87.67;100245.06;348861;28;3114;-74
2023/01/08 00:34:38;;;;;;;;;;;;;;;3.50;87.77;100238.16;347705;28;2003;-74
2023/01/08 00:34:48;;;;;;;;;;;;;;;3.50;88.11;100246.78;346220;28;5031;-74
2023/01/08 00:35:00;;;;;;;;;;;;;;;3.50;87.98;100239.00;345974;28;3487;-74
2023/01/08 00:35:10;;;;;;;;;;;;;;;3.49;87.71;100246.78;347791;28;1987;-74
2023/01/08 00:35:20;;;;;;;;;;;;;;;3.49;88.03;100242.47;347461;28;1901;-74
2023/01/08 00:35:31;;;;;;;;;;;;;;;3.49;87.72;100241.59;347686;28;3581;-74
2023/01/08 00:35:41;;;;;;;;;;;;;;;3.48;87.81;100240.75;347680;28;2363;-75
2023/01/08 00:35:51;;;;;;;;;;;;;;;3.48;87.41;100245.91;345076;28;3899;-75
2023/01/08 00:36:08;;;;;;;;;;;;;;;3.49;87.72;100241.59;346703;28;1660;-75
2023/01/08 00:36:18;;;;;;;;;;;;;;;3.48;87.70;100240.75;345861;28;1870;-75
2023/01/08 00:36:28;;;;;;;;;;;;;;;3.49;87.87;100241.59;346524;28;6034;-75
2023/01/08 00:36:38;;;;;;;;;;;;;;;3.49;87.66;100245.06;344970;28;1535;-75
2023/01/08 00:36:49;;;;;;;;;;;;;;;3.49;87.34;100245.06;343991;28;5353;-74
2023/01/08 00:36:59;;;;;;;;;;;;;;;3.49;87.72;100245.06;344451;28;5862;-75
2023/01/08 00:37:09;;;;;;;;;;;;;;;3.50;87.58;100241.59;344711;28;1960;-75
2023/01/08 00:37:19;;;;;;;;;;;;;;;3.49;87.66;100242.47;345258;28;2452;-75
2023/01/08 00:37:29;;;;;;;;;;;;;;;3.48;87.75;100235.56;343657;28;3362;-75
2023/01/08 00:37:40;;;;;;;;;;;;;;;3.49;87.72;100242.47;342269;28;2030;-75
2023/01/08 00:37:50;;;;;;;;;;;;;;;3.49;87.72;100242.47;341784;28;3930;-75
2023/01/08 00:38:00;;;;;;;;;;;;;;;3.49;87.54;100239.03;343255;28;3707;-75
2023/01/08 00:38:10;;;;;;;;;;;;;;;3.47;87.69;100248.50;343088;28;2033;-75
2023/01/08 00:38:24;;;;;;;;;;;;;;;3.48;87.54;100243.31;339547;29;2005;-75
2023/01/08 00:38:34;;;;;;;;;;;;;;;3.46;87.39;100242.50;340926;28;3746;-75
2023/01/08 00:38:44;;;;;;;;;;;;;;;3.46;87.92;100247.69;342058;28;1486;-75
2023/01/08 00:38:54;;;;;;;;;;;;;;;3.47;88.01;100248.50;335333;29;5522;-74
2023/01/08 00:39:05;;;;;;;;;;;;;;;3.47;88.01;100243.34;332351;29;3275;-75
2023/01/08 00:39:15;;;;;;;;;;;;;;;3.46;87.93;100242.50;332854;29;1955;-74
2023/01/08 00:39:25;;;;;;;;;;;;;;;3.46;87.52;100250.25;334486;29;2172;-74
2023/01/08 00:39:35;;;;;;;;;;;;;;;3.46;87.85;100242.50;333111;29;3689;-74
2023/01/08 00:39:46;;;;;;;;;;;;;;;3.47;87.69;100243.34;333865;29;3891;-74
2023/01/08 00:39:56;;;;;;;;;;;;;;;3.46;87.96;100242.50;332275;29;5479;-74
2023/01/08 00:40:06;;;;;;;;;;;;;;;3.47;87.94;100249.38;331619;29;2106;-74
2023/01/08 00:40:17;;;;;;;;;;;;;;;3.47;87.92;100239.03;332282;29;1916;-74
2023/01/08 00:40:27;;;;;;;;;;;;;;;3.47;87.81;100254.53;332873;29;3060;-74
2023/01/08 00:40:39;;;;;;;;;;;;;;;3.47;87.47;100243.34;333512;29;2302;-74
2023/01/08 00:40:49;;;;;;;;;;;;;;;3.47;87.88;100251.97;328944;29;3681;-75
2023/01/08 00:40:59;;;;;;;;;;;;;;;3.47;87.49;100244.19;325283;30;5130;-74
2023/01/08 00:41:09;;;;;;;;;;;;;;;3.48;87.79;100243.31;329301;29;3169;-74
2023/01/08 00:41:20;;;;;;;;;;;;;;;3.46;87.96;100247.69;330620;29;2139;-74
2023/01/08 00:41:30;;;;;;;;;;;;;;;3.47;87.65;100239.03;328712;29;3749;-74
2023/01/08 00:41:43;;;;;;;;;;;;;;;3.48;87.56;100239.88;325942;30;2183;-74
2023/01/08 00:41:53;;;;;;;;;;;;;;;3.48;87.70;100243.31;327391;30;3638;-74
2023/01/08 00:42:03;;;;;;;;;;;;;;;3.48;87.71;100251.09;328486;29;5471;-74
2023/01/08 00:42:13;;;;;;;;;;;;;;;3.48;87.79;100245.91;328041;30;3198;-74
2023/01/08 00:42:23;;;;;;;;;;;;;;;3.47;87.71;100241.59;328092;30;1696;-74
2023/01/08 00:42:34;;;;;;;;;;;;;;;3.47;87.66;100241.59;323796;30;3128;-74
2023/01/08 00:42:44;;;;;;;;;;;;;;;3.48;87.56;100242.47;324305;30;2175;-74
2023/01/08 00:42:54;;;;;;;;;;;;;;;3.48;87.60;100250.22;323745;30;3492;-74
2023/01/08 00:43:05;;;;;;;;;;;;;;;3.47;88.04;100239.03;316605;30;5716;-76
2023/01/08 00:43:15;;;;;;;;;;;;;;;3.47;87.82;100249.38;319419;30;2726;-76
2023/01/08 00:43:25;;;;;;;;;;;;;;;3.47;87.94;100249.38;318985;30;2315;-75
2023/01/08 00:43:35;;;;;;;;;;;;;;;3.48;87.91;100245.06;320252;30;3518;-75
2023/01/08 00:43:45;;;;;;;;;;;;;;;3.48;88.07;100240.75;320081;30;1330;-75
2023/01/08 00:43:56;;;;;;;;;;;;;;;3.48;88.16;100238.16;320180;30;5154;-74
2023/01/08 00:44:06;;;;;;;;;;;;;;;3.47;88.17;100238.16;322639;30;3206;-74
2023/01/08 00:44:16;;;;;;;;;;;;;;;3.48;87.94;100245.06;322871;30;4272;-74
2023/01/08 00:44:26;;;;;;;;;;;;;;;3.47;88.01;100244.19;322033;30;2493;-74
2023/01/08 00:44:37;;;;;;;;;;;;;;;3.47;87.88;100241.59;321582;30;3831;-74
2023/01/08 00:44:47;;;;;;;;;;;;;;;3.47;87.75;100243.34;319852;30;2792;-74
2023/01/08 00:44:57;;;;;;;;;;;;;;;3.47;87.66;100244.19;314900;30;5750;-74
2023/01/08 00:45:07;;;;;;;;;;;;;;;3.45;88.28;100248.53;318260;31;3277;-74
2023/01/08 00:45:18;;;;;;;;;;;;;;;3.46;87.87;100247.69;316794;31;3378;-74
2023/01/08 00:45:28;;;;;;;;;;;;;;;3.46;87.83;100242.50;314776;31;3362;-75
2023/01/08 00:45:38;;;;;;;;;;;;;;;3.45;88.05;100239.91;314897;31;2014;-75
2023/01/08 00:45:52;;;;;;;;;;;;;;;3.45;87.95;100248.53;312139;31;3968;-75
2023/01/08 00:46:02;;;;;;;;;;;;;;;3.45;87.98;100250.25;310889;31;3448;-75
2023/01/08 00:46:12;;;;;;;;;;;;;;;3.44;88.15;100248.53;311397;31;2116;-75
2023/01/08 00:46:23;;;;;;;;;;;;;;;3.44;88.30;100244.22;311701;31;2133;-75
2023/01/08 00:46:33;;;;;;;;;;;;;;;3.43;88.55;100242.50;310270;31;2981;-75
2023/01/08 00:46:43;;;;;;;;;;;;;;;3.43;88.34;100242.50;308322;31;3886;-74
2023/01/08 00:46:53;;;;;;;;;;;;;;;3.44;88.53;100238.19;307854;31;4969;-74
2023/01/08 00:47:03;;;;;;;;;;;;;;;3.44;87.94;100246.81;309513;31;5744;-74
2023/01/08 00:47:14;;;;;;;;;;;;;;;3.45;88.31;100250.25;309637;31;4305;-74
2023/01/08 00:47:24;;;;;;;;;;;;;;;3.44;88.01;100246.81;307422;32;2113;-74
2023/01/08 00:47:34;;;;;;;;;;;;;;;3.43;88.47;100242.50;307283;32;4311;-74
2023/01/08 00:47:45;;;;;;;;;;;;;;;3.43;88.21;100242.50;306596;32;4447;-74
2023/01/08 00:47:55;;;;;;;;;;;;;;;3.43;88.09;100245.09;305461;32;5503;-74
2023/01/08 00:48:05;;;;;;;;;;;;;;;3.44;87.85;100248.53;304517;32;6416;-74
2023/01/08 00:48:15;;;;;;;;;;;;;;;3.45;88.28;100255.44;305270;32;2507;-74
2023/01/08 00:48:26;;;;;;;;;;;;;;;3.43;87.97;100242.50;302723;32;3434;-74
2023/01/08 00:48:37;;;;;;;;;;;;;;;3.43;87.91;100246.81;302686;32;2064;-74
2023/01/08 00:48:47;;;;;;;;;;;;;;;3.42;88.00;100239.91;300195;32;4213;-74
2023/01/08 00:48:57;;;;;;;;;;;;;;;3.42;87.96;100248.53;299134;32;5704;-74
2023/01/08 00:49:08;;;;;;;;;;;;;;;3.42;87.96;100245.97;304902;32;6218;-74
2023/01/08 00:49:18;;;;;;;;;;;;;;;3.43;87.96;100242.50;304013;32;5501;-74
2023/01/08 00:49:28;;;;;;;;;;;;;;;3.41;87.57;100246.81;301781;32;6202;-74
2023/01/08 00:49:38;;;;;;;;;;;;;;;3.41;87.88;100246.81;302494;32;2188;-74
2023/01/08 00:49:49;;;;;;;;;;;;;;;3.41;87.76;100246.81;298724;32;6191;-75
2023/01/08 00:49:59;;;;;;;;;;;;;;;3.40;87.48;100239.94;293594;33;7619;-75
2023/01/08 00:50:09;;;;;;;;;;;;;;;3.39;87.60;100245.97;294259;33;2109;-75
2023/01/08 00:50:19;;;;;;;;;;;;;;;3.41;87.32;100248.53;292248;33;5988;-75
2023/01/08 00:50:30;;;;;;;;;;;;;;;3.41;87.43;100245.97;293007;33;3879;-75
2023/01/08 00:50:40;;;;;;;;;;;;;;;3.41;87.25;100248.53;294318;33;2130;-75
2023/01/08 00:50:50;;;;;;;;;;;;;;;3.40;87.57;100242.50;291190;33;5211;-75
2023/01/08 00:51:00;;;;;;;;;;;;;;;3.40;87.17;100242.50;290889;33;6048;-75
2023/01/08 00:51:11;;;;;;;;;;;;;;;3.38;87.28;100244.25;288987;34;6834;-75
2023/01/08 00:51:21;;;;;;;;;;;;;;;3.38;87.26;100244.25;288170;34;3260;-74
2023/01/08 00:51:31;;;;;;;;;;;;;;;3.37;87.46;100247.69;287896;34;7776;-75
2023/01/08 00:51:41;;;;;;;;;;;;;;;3.38;86.86;100248.56;289014;33;9122;-75
2023/01/08 00:51:52;;;;;;;;;;;;;;;3.38;86.99;100244.25;289077;33;6033;-75
2023/01/08 00:52:02;;;;;;;;;;;;;;;3.38;87.09;100249.41;287240;34;9266;-75
2023/01/08 00:52:12;;;;;;;;;;;;;;;3.37;86.59;100250.28;286811;33;9105;-75
2023/01/08 00:52:22;;;;;;;;;;;;;;;3.38;86.69;100249.41;291412;33;3247;-75
2023/01/08 00:52:33;;;;;;;;;;;;;;;3.38;86.88;100244.25;286322;34;8567;-75
2023/01/08 00:54:06;;;;;;;;;;;;;;;3.32;87.31;100249.41;2489836;27;20246;-74
2023/01/08 00:54:16;;;;;;;;;;;;;;;3.33;87.08;100245.97;353055;28;1813;-74
2023/01/08 00:54:26;;;;;;;;;;;;;;;3.31;86.85;100258.91;350166;28;3068;-74
2023/01/08 00:54:37;;;;;;;;;;;;;;;3.28;86.73;100247.69;348391;28;1915;-74
2023/01/08 00:54:47;;;;;;;;;;;;;;;3.29;86.84;100250.28;345816;28;3904;-74
2023/01/08 00:54:57;;;;;;;;;;;;;;;3.29;86.50;100252.00;345793;28;5414;-74
2023/01/08 00:55:07;;;;;;;;;;;;;;;3.28;86.62;100242.53;347164;28;3831;-74
2023/01/08 00:55:18;;;;;;;;;;;;;;;3.27;86.83;100245.97;347418;28;1972;-74
2023/01/08 00:55:28;;;;;;;;;;;;;;;3.28;86.75;100248.56;348929;28;3626;-74
2023/01/08 00:55:38;;;;;;;;;;;;;;;3.28;86.94;100256.31;347688;28;1422;-74
2023/01/08 00:55:48;;;;;;;;;;;;;;;3.29;86.75;100257.19;350777;28;3582;-74
2023/01/08 00:56:02;;;;;;;;;;;;;;;3.30;86.65;100251.16;348045;28;5700;-74
2023/01/08 00:56:12;;;;;;;;;;;;;;;3.30;86.78;100251.16;348699;28;2103;-74
2023/01/08 00:56:22;;;;;;;;;;;;;;;3.29;86.92;100252.88;348888;28;2086;-74
2023/01/08 00:56:32;;;;;;;;;;;;;;;3.29;86.86;100246.84;349501;28;3414;-74
2023/01/08 00:56:43;;;;;;;;;;;;;;;3.30;86.91;100253.72;348588;28;1010;-74
2023/01/08 00:56:56;;;;;;;;;;;;;;;3.30;86.94;100246.84;347137;28;4912;-74
2023/01/08 00:57:06;;;;;;;;;;;;;;;3.30;86.57;100251.16;348102;28;3492;-74
2023/01/08 00:57:17;;;;;;;;;;;;;;;3.29;86.57;100247.69;349185;28;897;-74
2023/01/08 00:57:31;;;;;;;;;;;;;;;3.31;86.65;100250.28;348609;28;5753;-74
2023/01/08 00:57:41;;;;;;;;;;;;;;;3.30;86.73;100249.41;345278;28;2045;-74
2023/01/08 00:57:51;;;;;;;;;;;;;;;3.31;86.83;100250.28;345627;28;3906;-74
2023/01/08 00:58:02;;;;;;;;;;;;;;;3.31;86.84;100251.16;346416;28;3291;-74
2023/01/08 00:58:12;;;;;;;;;;;;;;;3.33;86.85;100245.97;349037;28;3303;-74
2023/01/08 00:58:22;;;;;;;;;;;;;;;3.31;87.39;100248.56;348190;28;2069;-74
2023/01/08 00:58:32;;;;;;;;;;;;;;;3.32;87.32;100252.00;346143;28;3358;-74
2023/01/08 00:58:42;;;;;;;;;;;;;;;3.33;87.35;100258.91;348920;28;1731;-74
2023/01/08 00:58:53;;;;;;;;;;;;;;;3.34;87.37;100252.88;346986;28;5426;-74
2023/01/08 00:59:03;;;;;;;;;;;;;;;3.34;87.54;100258.03;348359;28;3306;-74
2023/01/08 00:59:13;;;;;;;;;;;;;;;3.34;87.20;100255.44;349224;28;867;-74
2023/01/08 00:59:23;;;;;;;;;;;;;;;3.34;87.25;100255.44;345920;28;1725;-74
2023/01/08 00:59:33;;;;;;;;;;;;;;;3.34;87.22;100255.44;347026;28;3624;-74
2023/01/08 00:59:44;;;;;;;;;;;;;;;3.34;87.65;100258.03;343083;28;954;-74
2023/01/08 00:59:54;;;;;;;;;;;;;;;3.33;87.78;100252.00;338989;28;5703;-74
2023/01/08 01:00:05;;;;;;;;;;;;;;;3.34;87.85;100252.88;342131;28;5619;-74
2023/01/08 01:00:17;;;;;;;;;;;;;;;3.33;87.50;100251.13;344280;28;965;-74
2023/01/08 01:00:27;;;;;;;;;;;;;;;3.34;88.19;100247.69;344467;28;5849;-74